Fort McKavett, Texas
Current Conditions -  °F | °C
As of 5:51 PM on Tuesday 25 Nov 2014 (Local Time) from KJCT Reporting Station
Clear Clear  
Wind Chill: 56°   Ceiling: Unl
Heat Index: 56°   Visibility: 10mi
Dew Point: 19°   Wind: 5mph
Humidity: 24%   Direction: 230°SW
Pressure: 30.21"   Gusts: NA
Location:  30.83°N, 100.11°W
Report Text: KJCT 252351Z AUTO 23004KT 10SM CLR 13/M07 A3021 RMK AO2 SLP218 T01331072 10172 20133 56006
Loading
Personal Weather Stations






























Interactive Weather Map New forecast layout! Learn more

10-Day Weather Forecast

Advertisements
Track Severe Weather on mobile